KHZR

False River Regional Airport

New Roads, Louisiana, USA
METAR KHZR 221438Z AUTO 06003KT 10SM CLR 13/06 A3022 RMK AO2
Observed Flight Rules
Oct-22 @ 14:38 UTC (16 minutes ago) Visual Flight Rules
Wind Visibility Clouds
60° at 3 knots 10 miles
  • Clear skies
Temperatures Readings
Current 13°C / 55°F
Dewpoint 6°C / 43°F
Humidity 63%
Altimeter 30.22" Hg
Pressure 1023 hPa
Elevation 12
METAR KHZR 221438Z AUTO 06003KT 10SM CLR 13/06 A3022 RMK AO2
Observed Flight Rules
Oct-22 @ 14:38 UTC
(16 minutes ago)
VFR
Wind Visibility
60° at 3 knots 10 miles
Clouds
  • Clear skies
Temperature Dewpoint
13°C / 55°F 6°C / 43°F
Humidity Altimeter Pressure
63% 30.22" Hg 1023 hPa